sensor_id;sensor_type;location;lat;lon;timestamp;temperature;humidity
66827;DHT22;53727;45.242;19.796;2022-10-15T12:19:47;640.60;1945.60
66827;DHT22;53727;45.242;19.796;2022-10-15T12:22:33;640.40;1740.80
66827;DHT22;53727;45.242;19.796;2022-10-15T12:25:00;640.60;1740.80
66827;DHT22;53727;45.242;19.796;2022-10-15T12:27:31;640.50;1740.80
66827;DHT22;53727;45.242;19.796;2022-10-15T12:32:38;640.20;1766.40
66827;DHT22;53727;45.242;19.796;2022-10-15T12:35:05;640.30;1740.80
66827;DHT22;53727;45.242;19.796;2022-10-15T12:37:44;640.60;1740.80
66827;DHT22;53727;45.242;19.796;2022-10-15T12:40:28;640.30;1715.20
66827;DHT22;53727;45.242;19.796;2022-10-15T12:42:58;640.00;1766.40
66827;DHT22;53727;45.242;19.796;2022-10-15T12:45:34;640.30;1715.20
66827;DHT22;53727;45.242;19.796;2022-10-15T12:50:31;640.30;1715.20
66827;DHT22;53727;45.242;19.796;2022-10-15T12:55:38;640.60;1664.00
66827;DHT22;53727;45.242;19.796;2022-10-15T12:58:31;640.30;1689.60
66827;DHT22;53727;45.242;19.796;2022-10-15T13:00:57;640.40;1715.20
66827;DHT22;53727;45.242;19.796;2022-10-15T13:03:57;640.40;1715.20
66827;DHT22;53727;45.242;19.796;2022-10-15T13:06:30;640.20;1740.80
66827;DHT22;53727;45.242;19.796;2022-10-15T13:09:05;640.40;1740.80
66827;DHT22;53727;45.242;19.796;2022-10-15T13:11:46;640.10;1766.40
66827;DHT22;53727;45.242;19.796;2022-10-15T13:14:36;640.20;1689.60
66827;DHT22;53727;45.242;19.796;2022-10-15T13:17:14;640.20;1715.20
66827;DHT22;53727;45.242;19.796;2022-10-15T13:19:47;640.60;1689.60
66827;DHT22;53727;45.242;19.796;2022-10-15T13:22:22;640.60;1689.60
66827;DHT22;53727;45.242;19.796;2022-10-15T13:24:48;640.80;1715.20
66827;DHT22;53727;45.242;19.796;2022-10-15T13:27:22;640.70;1689.60
66827;DHT22;53727;45.242;19.796;2022-10-15T13:30:05;640.70;1664.00
66827;DHT22;53727;45.242;19.796;2022-10-15T13:32:36;665.70;1715.20
66827;DHT22;53727;45.242;19.796;2022-10-15T13:35:09;640.00;1740.80
66827;DHT22;53727;45.242;19.796;2022-10-15T13:37:38;615.00;1766.40
66827;DHT22;53727;45.242;19.796;2022-10-15T13:40:05;615.20;1715.20
66827;DHT22;53727;45.242;19.796;2022-10-15T13:42:32;615.00;1740.80
66827;DHT22;53727;45.242;19.796;2022-10-15T13:47:34;640.20;1715.20
66827;DHT22;53727;45.242;19.796;2022-10-15T13:55:37;640.60;1689.60
66827;DHT22;53727;45.242;19.796;2022-10-15T13:58:24;640.20;1689.60
66827;DHT22;53727;45.242;19.796;2022-10-15T14:00:58;640.00;1664.00
66827;DHT22;53727;45.242;19.796;2022-10-15T14:03:26;615.10;1715.20
66827;DHT22;53727;45.242;19.796;2022-10-15T14:05:53;614.70;1740.80
66827;DHT22;53727;45.242;19.796;2022-10-15T14:08:31;614.50;1766.40
66827;DHT22;53727;45.242;19.796;2022-10-15T14:10:58;589.70;1792.00
66827;DHT22;53727;45.242;19.796;2022-10-15T14:13:25;589.50;1843.20
66827;DHT22;53727;45.242;19.796;2022-10-15T14:18:44;589.20;1817.60
66827;DHT22;53727;45.242;19.796;2022-10-15T14:21:19;588.90;1843.20
66827;DHT22;53727;45.242;19.796;2022-10-15T14:23:46;588.90;1868.80
66827;DHT22;53727;45.242;19.796;2022-10-15T14:26:13;588.90;1868.80
66827;DHT22;53727;45.242;19.796;2022-10-15T14:28:43;588.90;1868.80
66827;DHT22;53727;45.242;19.796;2022-10-15T14:31:29;588.80;1868.80
66827;DHT22;53727;45.242;19.796;2022-10-15T14:33:54;564.10;1894.40
66827;DHT22;53727;45.242;19.796;2022-10-15T14:36:21;564.00;1894.40
66827;DHT22;53727;45.242;19.796;2022-10-15T14:38:48;563.90;1894.40
66827;DHT22;53727;45.242;19.796;2022-10-15T14:44:03;640.40;1689.60
66827;DHT22;53727;45.242;19.796;2022-10-15T14:46:39;615.30;1689.60
66827;DHT22;53727;45.242;19.796;2022-10-15T14:49:24;615.20;1740.80
66827;DHT22;53727;45.242;19.796;2022-10-15T14:52:03;614.90;1740.80
66827;DHT22;53727;45.242;19.796;2022-10-15T14:54:43;614.60;1766.40
66827;DHT22;53727;45.242;19.796;2022-10-15T14:57:22;614.40;1766.40
66827;DHT22;53727;45.242;19.796;2022-10-15T14:59:52;614.70;1740.80
66827;DHT22;53727;45.242;19.796;2022-10-15T15:02:22;640.20;1715.20
66827;DHT22;53727;45.242;19.796;2022-10-15T15:07:40;615.20;1689.60
66827;DHT22;53727;45.242;19.796;2022-10-15T15:10:07;640.10;1664.00
66827;DHT22;53727;45.242;19.796;2022-10-15T15:12:34;640.30;1664.00
66827;DHT22;53727;45.242;19.796;2022-10-15T15:15:00;614.80;1715.20
66827;DHT22;53727;45.242;19.796;2022-10-15T15:17:28;589.50;1766.40
66827;DHT22;53727;45.242;19.796;2022-10-15T15:19:55;589.10;1817.60
66827;DHT22;53727;45.242;19.796;2022-10-15T15:25:20;563.70;2099.20
66827;DHT22;53727;45.242;19.796;2022-10-15T15:27:48;563.40;1945.60
66827;DHT22;53727;45.242;19.796;2022-10-15T15:30:17;563.20;1945.60
66827;DHT22;53727;45.242;19.796;2022-10-15T15:32:44;538.50;1945.60
66827;DHT22;53727;45.242;19.796;2022-10-15T15:35:38;538.30;1971.20
66827;DHT22;53727;45.242;19.796;2022-10-15T15:40:35;538.20;1996.80
66827;DHT22;53727;45.242;19.796;2022-10-15T15:43:01;537.80;2048.00
66827;DHT22;53727;45.242;19.796;2022-10-15T15:45:27;537.70;2048.00
66827;DHT22;53727;45.242;19.796;2022-10-15T17:57:32;460.90;2304.00
66827;DHT22;53727;45.242;19.796;2022-10-15T17:59:58;436.00;2278.40
66827;DHT22;53727;45.242;19.796;2022-10-15T18:02:24;436.00;2304.00
66827;DHT22;53727;45.242;19.796;2022-10-15T18:04:49;436.00;2304.00
66827;DHT22;53727;45.242;19.796;2022-10-15T18:07:15;436.00;2304.00
